createdAt,value
2019-01-03T00:01:15.519Z,158.67
2019-01-03T00:03:56.476Z,153.60
2019-01-03T00:06:37.126Z,156.10
2019-01-03T00:09:18.247Z,157.67
2019-01-03T00:11:59.036Z,172.27
2019-01-03T00:14:40.079Z,161.27
2019-01-03T00:17:20.849Z,163.03
2019-01-03T00:20:01.318Z,198.13
2019-01-03T00:22:41.767Z,170.40
2019-01-03T00:25:22.465Z,171.23
2019-01-03T00:28:03.554Z,168.13
2019-01-03T00:30:44.178Z,176.70
2019-01-03T00:33:24.845Z,202.77
2019-01-03T00:36:05.314Z,191.83
2019-01-03T00:38:45.873Z,170.67
2019-01-03T00:41:26.755Z,157.00
2019-01-03T00:44:07.683Z,178.93
2019-01-03T00:46:48.958Z,172.03
2019-01-03T00:49:29.686Z,157.57
2019-01-03T00:52:10.021Z,175.73
2019-01-03T00:54:50.705Z,174.80
2019-01-03T00:57:31.475Z,198.37
2019-01-03T01:00:12.401Z,189.10
2019-01-03T01:02:53.517Z,183.53
2019-01-03T01:05:34.718Z,195.10
2019-01-03T01:08:15.682Z,200.23
2019-01-03T01:10:56.656Z,201.83
2019-01-03T01:13:37.706Z,194.80
2019-01-03T01:16:18.582Z,190.50
2019-01-03T01:18:59.534Z,206.67
2019-01-03T01:21:40.222Z,189.07
2019-01-03T01:24:21.494Z,183.33
2019-01-03T01:27:02.493Z,184.30
2019-01-03T01:29:43.361Z,182.17
2019-01-03T01:32:24.314Z,179.07
2019-01-03T01:35:04.571Z,189.70
2019-01-03T01:37:45.961Z,200.30
2019-01-03T01:40:27.209Z,218.87
2019-01-03T01:43:08.529Z,207.23
2019-01-03T01:45:49.640Z,198.20
2019-01-03T01:48:30.715Z,186.60
2019-01-03T01:51:12.015Z,190.07
2019-01-03T01:53:53.273Z,182.77
2019-01-03T01:56:34.340Z,188.33
2019-01-03T01:59:15.181Z,187.00
2019-01-03T02:01:55.832Z,181.77
2019-01-03T02:04:36.464Z,184.03
2019-01-03T02:07:16.967Z,175.27
2019-01-03T02:09:57.533Z,174.00
2019-01-03T02:12:37.797Z,177.10
2019-01-03T02:15:18.883Z,176.47
2019-01-03T02:17:59.519Z,185.10
2019-01-03T02:20:40.530Z,184.63
2019-01-03T02:23:21.594Z,189.40
2019-01-03T02:26:02.391Z,198.43
2019-01-03T02:28:43.242Z,206.10
2019-01-03T02:31:23.627Z,184.30
2019-01-03T02:34:04.252Z,174.87
2019-01-03T02:36:45.131Z,191.90
2019-01-03T02:39:26.088Z,177.37
2019-01-03T02:42:06.762Z,186.53
2019-01-03T02:44:48.010Z,185.20
2019-01-03T02:47:29.014Z,300.10
2019-01-03T02:50:09.817Z,295.07
2019-01-03T02:52:50.451Z,273.73
2019-01-03T02:55:30.722Z,299.40
2019-01-03T02:58:11.488Z,244.87
2019-01-03T03:00:51.946Z,248.00
2019-01-03T03:03:32.414Z,239.33
2019-01-03T03:06:13.280Z,238.10
2019-01-03T03:08:53.581Z,228.27
2019-01-03T03:11:34.401Z,240.00
2019-01-03T03:14:14.560Z,238.53
2019-01-03T03:16:54.597Z,228.00
2019-01-03T03:19:35.688Z,222.53
2019-01-03T03:22:16.659Z,235.03
2019-01-03T03:24:56.880Z,219.47
2019-01-03T03:27:37.222Z,221.37
2019-01-03T03:30:17.607Z,218.93
2019-01-03T03:32:58.624Z,216.27
2019-01-03T03:35:39.512Z,207.00
2019-01-03T03:38:20.270Z,207.77
2019-01-03T03:41:01.211Z,207.83
2019-01-03T03:43:41.816Z,195.93
2019-01-03T03:46:22.721Z,190.97
2019-01-03T03:49:03.974Z,187.97
2019-01-03T03:51:45.289Z,187.83
2019-01-03T03:54:26.294Z,188.47
2019-01-03T03:57:07.268Z,182.73
2019-01-03T03:59:47.934Z,179.97
2019-01-03T04:02:28.479Z,175.17
2019-01-03T04:05:08.947Z,169.47
2019-01-03T04:07:49.615Z,163.13
2019-01-03T04:10:29.802Z,159.03
2019-01-03T04:13:10.556Z,153.40
2019-01-03T04:15:51.725Z,162.80
2019-01-03T04:18:32.015Z,142.40
2019-01-03T04:21:12.969Z,125.23
2019-01-03T04:23:53.612Z,124.30
2019-01-03T04:26:34.651Z,121.83
2019-01-03T04:29:15.199Z,120.27
2019-01-03T04:31:56.235Z,121.73
2019-01-03T04:34:37.023Z,125.73
2019-01-03T04:37:17.684Z,131.00
2019-01-03T04:39:58.395Z,125.57
2019-01-03T04:42:39.093Z,131.80
2019-01-03T04:45:20.010Z,127.60
2019-01-03T04:48:00.852Z,129.23
2019-01-03T04:50:41.319Z,130.53
2019-01-03T04:53:22.564Z,137.10
2019-01-03T04:56:03.842Z,129.30
2019-01-03T04:58:44.860Z,136.13
2019-01-03T05:01:25.451Z,137.17
2019-01-03T05:04:06.006Z,141.60
2019-01-03T05:06:46.723Z,137.47
2019-01-03T05:09:27.533Z,132.40
2019-01-03T05:12:08.670Z,142.30
2019-01-03T05:14:49.427Z,136.67
2019-01-03T05:17:30.589Z,130.37
2019-01-03T05:20:11.397Z,135.73
2019-01-03T05:22:51.788Z,129.97
2019-01-03T05:25:32.226Z,129.73
2019-01-03T05:28:12.577Z,131.00
2019-01-03T05:30:52.938Z,132.27
2019-01-03T05:37:59.926Z,131.67
2019-01-03T05:40:40.592Z,135.43
2019-01-03T05:43:20.765Z,134.80
2019-01-03T05:46:01.520Z,137.50
2019-01-03T05:48:42.162Z,137.20
2019-01-03T05:51:22.944Z,139.37
2019-01-03T05:54:02.996Z,141.63
2019-01-03T05:56:43.881Z,143.57
2019-01-03T05:59:24.876Z,146.23
2019-01-03T06:02:05.835Z,141.97
2019-01-03T06:04:47.074Z,153.03
2019-01-03T06:07:28.153Z,154.17
2019-01-03T06:10:08.521Z,159.77
2019-01-03T06:12:49.197Z,178.93
2019-01-03T06:15:29.744Z,194.97
2019-01-03T06:18:10.642Z,194.83
2019-01-03T06:20:50.874Z,198.60
2019-01-03T06:23:31.778Z,197.57
2019-01-03T06:26:12.509Z,198.83
2019-01-03T06:28:52.788Z,189.10
2019-01-03T06:31:33.675Z,178.97
2019-01-03T06:34:14.458Z,171.80
2019-01-03T06:36:54.876Z,176.20
2019-01-03T06:39:35.353Z,172.00
2019-01-03T06:42:15.592Z,163.20
2019-01-03T06:44:56.076Z,156.37
2019-01-03T06:47:36.745Z,157.60
2019-01-03T06:50:17.183Z,153.73
2019-01-03T07:21:07.213Z,152.90
2019-01-03T07:23:48.191Z,149.03
2019-01-03T07:26:29.123Z,151.87
2019-01-03T07:29:09.576Z,146.87
2019-01-03T07:31:50.043Z,147.13
2019-01-03T07:34:30.514Z,149.10
2019-01-03T07:37:11.043Z,145.37
2019-01-03T07:39:51.811Z,147.50
2019-01-03T07:42:32.738Z,150.10
2019-01-03T07:45:13.039Z,145.87
2019-01-03T07:47:53.669Z,151.20
2019-01-03T07:50:34.105Z,148.67
2019-01-03T07:53:15.245Z,142.47
2019-01-03T07:55:56.283Z,144.37
2019-01-03T07:58:36.698Z,140.10
2019-01-03T08:01:17.463Z,146.27
2019-01-03T08:04:04.986Z,143.17
2019-01-03T08:06:46.384Z,141.63
2019-01-03T08:09:26.826Z,148.37
2019-01-03T08:12:08.313Z,150.10
2019-01-03T08:14:48.659Z,147.20
2019-01-03T08:17:29.330Z,148.03
2019-01-03T08:20:10.203Z,142.30
2019-01-03T08:22:50.743Z,146.93
2019-01-03T08:25:31.438Z,143.43
2019-01-03T08:35:34.118Z,155.80
2019-01-03T08:38:14.874Z,146.93
2019-01-03T08:40:55.555Z,146.23
2019-01-03T08:43:36.442Z,147.63
2019-01-03T08:46:17.350Z,142.00
2019-01-03T08:49:00.591Z,147.90
2019-01-03T08:51:39.472Z,147.40
2019-01-03T08:54:19.923Z,135.67
2019-01-03T08:57:00.608Z,137.43
2019-01-03T08:59:41.241Z,137.90
2019-01-03T09:02:21.862Z,135.73
2019-01-03T09:05:02.276Z,137.60
2019-01-03T09:07:42.938Z,136.37
2019-01-03T09:10:23.586Z,138.43
2019-01-03T09:13:04.170Z,133.80
2019-01-03T09:15:44.772Z,141.20
2019-01-03T09:33:13.945Z,120.57
2019-01-03T09:35:54.550Z,125.53
2019-01-03T09:38:35.544Z,127.00
2019-01-03T09:41:16.507Z,116.73
2019-01-03T09:43:57.537Z,116.80
2019-01-03T09:46:38.662Z,119.33
2019-01-03T09:49:19.712Z,118.93
2019-01-03T09:52:00.298Z,115.27
2019-01-03T09:54:41.388Z,111.73
2019-01-03T09:57:22.319Z,115.17
2019-01-03T10:00:02.893Z,142.67
2019-01-03T10:02:43.245Z,179.73
2019-01-03T10:05:24.261Z,175.40
2019-01-03T10:08:05.588Z,142.77
2019-01-03T10:10:47.225Z,147.40
2019-01-03T10:13:28.194Z,130.50
2019-01-03T10:16:08.545Z,158.23
2019-01-03T10:18:49.438Z,286.87
2019-01-03T10:21:30.092Z,350.33
2019-01-03T10:24:10.469Z,283.40
2019-01-03T10:26:51.264Z,280.37
2019-01-03T10:29:32.413Z,164.03
2019-01-03T10:32:14.095Z,181.90
2019-01-03T10:34:54.645Z,176.27
2019-01-03T10:37:35.588Z,144.27
2019-01-03T10:40:16.814Z,147.80
2019-01-03T10:42:57.445Z,139.03
2019-01-03T10:45:37.931Z,152.17
2019-01-03T10:48:18.384Z,148.10
2019-01-03T10:50:59.093Z,123.17
2019-01-03T10:53:39.620Z,122.87
2019-01-03T10:56:20.280Z,123.40
2019-01-03T10:59:00.645Z,130.17
2019-01-03T11:01:41.820Z,128.10
2019-01-03T11:04:22.712Z,125.80
2019-01-03T11:07:03.571Z,124.37
2019-01-03T11:09:43.935Z,153.60
2019-01-03T11:12:24.642Z,148.53
2019-01-03T11:15:05.693Z,125.37
2019-01-03T11:17:46.455Z,122.60
2019-01-03T11:20:27.626Z,120.77
2019-01-03T11:23:08.512Z,128.77
2019-01-03T11:25:49.349Z,125.20
2019-01-03T11:28:30.592Z,120.30
2019-01-03T11:31:11.414Z,113.03
2019-01-03T11:33:52.341Z,111.70
2019-01-03T11:36:33.099Z,124.57
2019-01-03T11:39:13.710Z,145.97
2019-01-03T11:41:53.987Z,121.20
2019-01-03T11:44:34.320Z,155.73
2019-01-03T11:47:15.327Z,136.67
2019-01-03T11:49:56.011Z,119.43
2019-01-03T11:52:36.828Z,121.70
2019-01-03T11:55:17.296Z,136.30
2019-01-03T11:57:57.962Z,139.50
2019-01-03T12:00:38.622Z,141.73
2019-01-03T12:03:19.092Z,127.67
2019-01-03T12:05:59.546Z,124.30
2019-01-03T12:08:40.225Z,148.80
2019-01-03T12:11:20.786Z,135.17
2019-01-03T12:14:01.307Z,133.97
2019-01-03T12:16:42.205Z,138.77
2019-01-03T12:19:23.212Z,198.03
2019-01-03T12:22:04.176Z,226.63
2019-01-03T12:24:44.937Z,204.73
2019-01-03T12:27:25.495Z,205.40
2019-01-03T12:30:06.291Z,236.63
2019-01-03T12:32:46.850Z,202.03
2019-01-03T12:35:28.163Z,227.60
2019-01-03T12:38:08.921Z,196.23
2019-01-03T12:40:49.536Z,177.33
2019-01-03T12:43:29.936Z,188.43
2019-01-03T12:50:15.720Z,197.90
2019-01-03T12:52:56.288Z,184.87
2019-01-03T12:55:36.868Z,173.03
2019-01-03T12:58:17.223Z,208.57
2019-01-03T13:00:57.864Z,205.23
2019-01-03T13:03:39.218Z,191.07
2019-01-03T13:06:21.060Z,214.50
2019-01-03T13:09:02.421Z,216.17
2019-01-03T13:11:43.407Z,195.77
2019-01-03T13:14:24.024Z,201.10
2019-01-03T13:17:05.635Z,200.07
2019-01-03T13:19:46.313Z,206.37
2019-01-03T13:22:26.790Z,226.77
2019-01-03T13:25:07.503Z,223.27
2019-01-03T13:27:49.114Z,215.77
2019-01-03T13:30:30.225Z,204.37
2019-01-03T13:33:11.352Z,201.17
2019-01-03T13:35:52.394Z,191.43
2019-01-03T13:38:33.203Z,212.10
2019-01-03T13:41:14.344Z,255.87
2019-01-03T13:43:55.215Z,186.33
2019-01-03T13:46:35.625Z,179.73
2019-01-03T13:49:16.545Z,183.47
2019-01-03T13:51:57.147Z,181.50
2019-01-03T13:54:38.183Z,190.90
2019-01-03T13:57:18.944Z,176.33
2019-01-03T13:59:59.855Z,186.20
2019-01-03T14:02:40.787Z,189.93
2019-01-03T14:05:21.954Z,189.70
2019-01-03T14:08:03.240Z,200.37
2019-01-03T14:10:44.218Z,248.00
2019-01-03T14:13:24.780Z,206.03
2019-01-03T14:16:05.017Z,218.83
2019-01-03T14:18:45.589Z,227.43
2019-01-03T14:21:26.487Z,259.50
2019-01-03T14:24:07.345Z,291.93
2019-01-03T14:26:48.334Z,270.33
2019-01-03T14:29:29.066Z,252.80
2019-01-03T14:32:09.772Z,242.47
2019-01-03T14:34:50.637Z,244.83
2019-01-03T14:37:31.493Z,244.50
2019-01-03T14:40:12.499Z,234.53
2019-01-03T14:42:52.788Z,229.37
2019-01-03T14:45:33.273Z,237.67
2019-01-03T14:48:14.154Z,234.80
2019-01-03T14:50:54.615Z,236.67
2019-01-03T14:53:41.791Z,231.70
2019-01-03T14:56:32.109Z,240.27
2019-01-03T15:02:06.642Z,229.67
2019-01-03T15:05:00.199Z,246.87
2019-01-03T15:07:51.075Z,258.03
2019-01-03T15:10:38.600Z,235.90
2019-01-03T15:13:27.986Z,224.80
2019-01-03T15:19:12.780Z,251.80
2019-01-03T15:24:48.395Z,265.07
2019-01-03T15:27:36.190Z,240.13
2019-01-03T15:30:29.876Z,250.47
2019-01-03T15:36:08.628Z,261.43
2019-01-03T15:38:53.872Z,246.93
2019-01-03T15:50:06.096Z,250.40
2019-01-03T15:55:40.790Z,250.73
2019-01-03T15:58:24.902Z,265.00
2019-01-03T16:01:06.202Z,255.50
2019-01-03T16:03:50.278Z,253.90
2019-01-03T16:09:28.190Z,258.53
2019-01-03T16:12:14.112Z,271.27
2019-01-03T16:14:56.779Z,281.27
2019-01-03T16:17:40.953Z,262.70
2019-01-03T16:26:06.472Z,240.10
2019-01-03T16:28:49.795Z,246.33
2019-01-03T16:31:35.549Z,238.37
2019-01-03T16:34:24.144Z,235.70
2019-01-03T16:37:17.392Z,232.10
2019-01-03T16:39:59.140Z,245.60
2019-01-03T16:42:42.587Z,254.83
2019-01-03T16:45:36.715Z,246.30
2019-01-03T16:51:10.825Z,235.47
2019-01-03T16:53:56.259Z,231.57
2019-01-03T16:56:40.526Z,232.07
2019-01-03T16:59:22.836Z,240.10
2019-01-03T17:02:08.032Z,243.00
2019-01-03T17:04:53.732Z,238.63
2019-01-03T17:07:38.389Z,246.40
2019-01-03T17:10:26.308Z,236.83
2019-01-03T17:13:07.349Z,243.80
2019-01-03T17:18:48.921Z,234.90
2019-01-03T17:21:29.815Z,273.93
2019-01-03T17:24:10.971Z,244.27
2019-01-03T17:26:55.510Z,239.70
2019-01-03T17:29:45.305Z,237.80
2019-01-03T17:32:26.335Z,234.33
2019-01-03T17:35:07.187Z,246.80
2019-01-03T17:37:47.499Z,229.57
2019-01-03T17:40:28.716Z,231.07
2019-01-03T17:43:09.584Z,229.10
2019-01-03T17:45:49.858Z,240.73
2019-01-03T17:48:30.536Z,247.57
2019-01-03T17:51:11.469Z,223.47
2019-01-03T17:53:52.338Z,233.13
2019-01-03T17:56:37.439Z,226.57
2019-01-03T17:59:28.469Z,224.57
2019-01-03T18:02:17.318Z,216.93
2019-01-03T18:05:01.317Z,231.33
2019-01-03T18:10:30.316Z,242.67
2019-01-03T18:13:14.358Z,243.20
2019-01-03T18:18:44.282Z,228.70
2019-01-03T18:21:25.361Z,229.77
2019-01-03T18:24:08.424Z,228.83
2019-01-03T18:26:53.920Z,237.83
2019-01-03T18:29:38.775Z,246.20
2019-01-03T18:32:19.834Z,240.87
2019-01-03T18:35:00.506Z,239.60
2019-01-03T18:37:41.466Z,240.87
2019-01-03T18:40:22.173Z,239.83
2019-01-03T18:43:04.567Z,234.13
2019-01-03T18:45:45.333Z,233.43
2019-01-03T18:48:26.174Z,232.13
2019-01-03T18:51:06.497Z,228.50
2019-01-03T18:53:47.055Z,228.80
2019-01-03T18:56:28.337Z,233.43
2019-01-03T18:59:09.143Z,232.80
2019-01-03T19:01:50.233Z,229.77
2019-01-03T19:04:32.062Z,232.10
2019-01-03T19:07:13.977Z,257.20
2019-01-03T19:09:55.692Z,257.77
2019-01-03T19:12:36.910Z,252.50
2019-01-03T19:15:18.502Z,248.03
2019-01-03T19:18:00.561Z,246.13
2019-01-03T19:20:41.182Z,236.63
2019-01-03T19:23:22.057Z,230.77
2019-01-03T19:26:02.508Z,230.30
2019-01-03T19:28:43.029Z,230.30
2019-01-03T19:31:24.682Z,235.53
2019-01-03T19:34:05.541Z,229.20
2019-01-03T19:36:50.227Z,240.73
2019-01-03T19:39:31.161Z,241.30
2019-01-03T19:42:12.544Z,241.27
2019-01-03T19:44:54.845Z,258.27
2019-01-03T19:47:43.873Z,242.13
2019-01-03T19:50:25.312Z,243.20
2019-01-03T19:53:05.998Z,245.47
2019-01-03T19:55:46.909Z,250.20
2019-01-03T19:58:27.594Z,244.60
2019-01-03T20:01:08.876Z,248.27
2019-01-03T20:03:49.435Z,250.33
2019-01-03T20:06:30.304Z,254.47
2019-01-03T20:09:11.110Z,254.60
2019-01-03T20:11:52.083Z,252.87
2019-01-03T20:14:32.984Z,247.63
2019-01-03T20:17:13.948Z,240.93
2019-01-03T20:19:54.889Z,242.23
2019-01-03T20:22:35.936Z,246.20
2019-01-03T20:25:16.801Z,246.03
2019-01-03T20:27:57.407Z,244.87
2019-01-03T20:30:38.278Z,243.73
2019-01-03T20:33:19.045Z,255.13
2019-01-03T20:36:00.051Z,261.90
2019-01-03T20:38:40.987Z,255.83
2019-01-03T20:41:21.942Z,255.13
2019-01-03T20:44:02.703Z,247.40
2019-01-03T20:46:43.686Z,238.27
2019-01-03T20:49:24.498Z,250.20
2019-01-03T20:52:05.529Z,248.40
2019-01-03T20:54:46.297Z,247.50
2019-01-03T20:57:26.560Z,253.77
2019-01-03T21:00:07.439Z,254.80
2019-01-03T21:02:47.775Z,245.90
2019-01-03T21:05:28.264Z,243.30
2019-01-03T21:08:08.701Z,249.83
2019-01-03T21:10:49.374Z,242.83
2019-01-03T21:13:29.658Z,258.80
2019-01-03T21:16:10.202Z,252.60
2019-01-03T21:18:50.884Z,257.27
2019-01-03T21:21:31.421Z,251.23
2019-01-03T21:24:13.129Z,243.60
2019-01-03T21:26:54.523Z,247.00
2019-01-03T21:29:35.261Z,255.37
2019-01-03T21:32:16.000Z,263.23
2019-01-03T21:34:56.976Z,260.70
2019-01-03T21:37:37.487Z,252.57
2019-01-03T21:40:18.580Z,251.07
2019-01-03T21:42:59.216Z,243.33
2019-01-03T21:45:39.615Z,247.97
2019-01-03T21:48:20.169Z,243.23
2019-01-03T21:51:01.004Z,246.07
2019-01-03T21:53:42.249Z,250.10
2019-01-03T21:56:22.847Z,245.27
2019-01-03T21:59:03.562Z,249.30
2019-01-03T22:01:44.075Z,252.13
2019-01-03T22:04:25.083Z,245.77
2019-01-03T22:07:06.239Z,234.17
2019-01-03T22:09:47.208Z,250.80
2019-01-03T22:12:27.772Z,248.30
2019-01-03T22:15:08.336Z,251.33
2019-01-03T22:17:48.563Z,260.27
2019-01-03T22:20:29.206Z,261.73
2019-01-03T22:23:09.815Z,250.37
2019-01-03T22:25:50.523Z,252.10
2019-01-03T22:28:30.847Z,260.13
2019-01-03T22:31:11.280Z,269.00
2019-01-03T22:33:52.078Z,264.80
2019-01-03T22:36:32.411Z,265.43
2019-01-03T22:39:13.620Z,260.10
2019-01-03T22:41:54.573Z,279.93
2019-01-03T22:44:35.838Z,276.70
2019-01-03T22:47:16.647Z,264.80
2019-01-03T22:49:57.760Z,278.77
2019-01-03T22:52:39.071Z,271.43
2019-01-03T22:55:20.089Z,282.27
2019-01-03T22:58:00.864Z,284.23
2019-01-03T23:00:41.932Z,271.07
2019-01-03T23:03:23.008Z,281.33
2019-01-03T23:06:04.199Z,276.27
2019-01-03T23:08:44.841Z,287.93
2019-01-03T23:11:25.759Z,290.17
2019-01-03T23:14:07.048Z,282.13
2019-01-03T23:16:48.106Z,294.10
2019-01-03T23:19:28.975Z,286.47
2019-01-03T23:22:09.695Z,294.37
2019-01-03T23:24:50.572Z,276.47
2019-01-03T23:27:30.929Z,274.23
2019-01-03T23:30:14.226Z,269.47
2019-01-03T23:32:55.265Z,299.33
2019-01-03T23:35:36.097Z,283.97
2019-01-03T23:38:16.056Z,295.50
2019-01-03T23:40:57.307Z,291.30
2019-01-03T23:43:38.566Z,299.20
2019-01-03T23:46:19.839Z,299.63
2019-01-03T23:49:00.855Z,298.70
2019-01-03T23:51:41.767Z,283.90
2019-01-03T23:54:23.071Z,291.87
2019-01-03T23:57:03.575Z,290.03
2019-01-03T23:59:44.977Z,292.77
